Terminal Aerodrome Forecast
Issued by NWS

Home | Current Version | Previous Version | Text Only | Print | Product List | Glossary On
Versions: 1 2 3 4 5 6 7 8 9 10 11 12 13 14 15 16 17 18 19 20 21 22 23 24 25 26 27
396
FTUS41 KRLX 231724
TAFCKB
TAF
KCKB 231724Z 2318/2418 29005G15KT P6SM SKC
     FM240700 00000KT 4SM BR FEW050
     FM240900 00000KT 1/2SM FG OVC001
     FM241400 VRB02KT 5SM BR SCT001
     FM241500 VRB03KT P6SM SCT050=

USA.gov is the U.S. government's official web portal to all federal, state and local government web resources and services.